Time;durP1;ratioP1;P1;durP2;ratioP2;P2;SDS_P1;SDS_P2;PMS_P1;PMS_P2;Temp;Humidity;BMP_temperature;BMP_pressure;BME280_temperature;BME280_humidity;BME280_pressure;Samples;Min_cycle;Max_cycle;Signal;HPM_P1;HPM_P2
2022/08/03 00:00:25;;;;;;;16.33;4.20;;;;;;;22.53;76.61;101432.63;5309279;28;20032;-72
2022/08/03 00:02:56;;;;;;;14.75;3.38;;;;;;;22.52;76.60;101433.59;5311614;28;20023;-71
2022/08/03 00:05:28;;;;;;;8.30;2.33;;;;;;;22.24;78.45;101430.09;5309682;28;20031;-71
2022/08/03 00:08:00;;;;;;;13.50;2.85;;;;;;;22.41;77.58;101432.84;5310690;28;20039;-72
2022/08/03 00:10:31;;;;;;;12.95;3.20;;;;;;;22.24;77.79;101424.75;5309955;28;20036;-72
2022/08/03 00:13:02;;;;;;;11.32;3.10;;;;;;;22.46;77.04;101433.22;5310462;28;20032;-72
2022/08/03 00:15:34;;;;;;;9.88;3.80;;;;;;;22.15;78.47;101424.84;5311460;28;20028;-72
2022/08/03 00:18:05;;;;;;;15.77;3.65;;;;;;;22.32;77.92;101420.47;5312108;28;20076;-72
2022/08/03 00:20:36;;;;;;;12.45;3.65;;;;;;;22.31;78.33;101429.44;5314046;28;20051;-72
2022/08/03 00:23:08;;;;;;;15.65;3.20;;;;;;;22.27;78.47;101436.09;5315175;28;20024;-72
2022/08/03 00:25:39;;;;;;;15.90;3.35;;;;;;;21.92;80.63;101425.31;5313182;28;20027;-72
2022/08/03 00:28:10;;;;;;;11.88;3.50;;;;;;;22.22;79.41;101423.22;5314586;28;20069;-73
2022/08/03 00:30:42;;;;;;;14.20;3.20;;;;;;;22.17;79.41;101429.03;5313219;28;20118;-73
2022/08/03 00:33:13;;;;;;;16.50;3.53;;;;;;;22.24;78.82;101424.75;5313102;28;20028;-73
2022/08/03 00:35:44;;;;;;;13.60;3.40;;;;;;;22.22;79.02;101421.38;5314910;28;20031;-73
2022/08/03 00:38:15;;;;;;;11.68;2.92;;;;;;;22.06;80.01;101421.28;5314247;28;20024;-73
2022/08/03 00:40:47;;;;;;;11.65;3.25;;;;;;;21.98;80.69;101428.22;5313589;28;20058;-73
2022/08/03 00:43:18;;;;;;;14.02;2.97;;;;;;;22.04;80.59;101426.78;5314511;28;20697;-73
2022/08/03 00:45:49;;;;;;;13.55;3.70;;;;;;;22.10;79.68;101419.97;5313900;28;20037;-73
2022/08/03 00:48:21;;;;;;;14.35;3.10;;;;;;;21.74;82.15;101418.97;5314667;28;20028;-72
2022/08/03 00:50:52;;;;;;;12.23;3.72;;;;;;;21.79;81.93;101410.56;5314103;28;20022;-73
2022/08/03 00:53:24;;;;;;;11.27;3.45;;;;;;;21.97;80.73;101417.72;5312894;28;20076;-73
2022/08/03 00:55:56;;;;;;;9.82;3.03;;;;;;;22.05;79.88;101417.75;5313520;28;20023;-72
2022/08/03 00:58:27;;;;;;;12.38;3.25;;;;;;;21.86;81.11;101414.28;5313451;28;20030;-73
2022/08/03 01:00:59;;;;;;;14.88;3.90;;;;;;;21.85;81.06;101417.94;5314235;28;20067;-73
2022/08/03 01:03:30;;;;;;;16.45;3.97;;;;;;;21.82;80.71;101414.75;5261300;22;20053;-72
2022/08/03 01:06:16;;;;;;;14.23;3.65;;;;;;;21.97;79.52;101410.56;5231068;28;20029;-73
2022/08/03 01:09:07;;;;;;;11.68;3.03;;;;;;;22.02;79.44;101407.41;5230567;28;20511;-72
2022/08/03 01:12:13;;;;;;;16.13;3.53;;;;;;;21.79;81.74;101407.00;5211856;28;20032;-72
2022/08/03 01:14:59;;;;;;;15.40;3.60;;;;;;;21.81;81.16;101405.91;5212890;28;20084;-73
2022/08/03 01:17:42;;;;;;;14.40;3.40;;;;;;;21.72;81.33;101404.13;5230517;28;20048;-73
2022/08/03 01:20:17;;;;;;;11.13;3.50;;;;;;;21.62;83.65;101405.03;5230304;28;20387;-72
2022/08/03 01:23:02;;;;;;;8.40;3.08;;;;;;;21.79;81.17;101399.00;5212512;28;20371;-72
2022/08/03 01:26:04;;;;;;;13.93;3.70;;;;;;;21.49;83.40;101383.25;5228569;28;20049;-72
2022/08/03 01:29:02;;;;;;;11.38;3.22;;;;;;;21.61;82.93;101398.03;5229924;28;20098;-71
2022/08/03 01:31:47;;;;;;;8.30;3.15;;;;;;;21.36;84.27;101386.28;5229907;28;20060;-72
2022/08/03 01:34:20;;;;;;;11.57;3.72;;;;;;;21.58;82.92;101395.66;5229639;28;20579;-72
2022/08/03 01:36:55;;;;;;;8.32;3.05;;;;;;;21.23;86.08;101395.47;5229945;28;20080;-72
2022/08/03 01:39:29;;;;;;;11.43;3.05;;;;;;;21.08;88.32;101394.31;5228160;28;20045;-73
2022/08/03 01:42:05;;;;;;;8.40;3.05;;;;;;;21.14;87.70;101391.03;5212471;28;20532;-71
2022/08/03 01:44:40;;;;;;;9.40;3.30;;;;;;;21.09;88.44;101393.31;5228753;28;20025;-72
2022/08/03 01:47:12;;;;;;;12.00;3.37;;;;;;;20.97;89.21;101385.53;5212230;28;20029;-72
2022/08/03 01:49:45;;;;;;;12.90;3.13;;;;;;;21.12;88.49;101391.19;5229152;28;20472;-72
2022/08/03 01:52:18;;;;;;;9.23;3.10;;;;;;;21.26;87.00;101381.00;5229362;28;20068;-72
2022/08/03 01:54:51;;;;;;;8.43;3.13;;;;;;;21.22;86.97;101388.50;5228998;28;20022;-71
2022/08/03 01:57:25;;;;;;;11.40;3.30;;;;;;;21.14;87.91;101385.72;5229120;28;20545;-72
2022/08/03 01:59:59;;;;;;;9.48;3.50;;;;;;;21.23;86.92;101386.63;5229676;28;20053;-73
2022/08/03 02:02:31;;;;;;;8.33;3.27;;;;;;;20.75;90.57;101384.88;5228506;28;20058;-72
2022/08/03 02:05:07;;;;;;;14.03;3.07;;;;;;;20.87;90.60;101385.56;5229659;28;20032;-72
2022/08/03 02:07:40;;;;;;;8.17;3.07;;;;;;;20.72;90.95;101393.16;5228853;28;20034;-72
2022/08/03 02:10:14;;;;;;;7.70;3.20;;;;;;;20.79;90.16;101370.31;5210333;28;20037;-73
2022/08/03 02:12:47;;;;;;;;;;;;;;;21.34;83.44;101388.25;5211583;28;20349;-72
2022/08/03 02:15:19;;;;;;;8.57;2.97;;;;;;;21.12;87.43;101387.72;5229186;28;20315;-73
2022/08/03 02:17:53;;;;;;;11.77;3.50;;;;;;;21.07;87.58;101379.31;5229016;28;20033;-72
2022/08/03 02:20:26;;;;;;;13.95;3.38;;;;;;;21.15;86.74;101382.88;5210946;28;20033;-73
2022/08/03 02:22:58;;;;;;;13.00;2.90;;;;;;;21.02;87.44;101380.59;5228781;28;20455;-73
2022/08/03 02:25:30;;;;;;;7.63;2.83;;;;;;;21.01;87.56;101381.59;5227839;28;20075;-69
2022/08/03 02:28:10;;;;;;;13.13;3.33;;;;;;;21.05;87.56;101381.28;5228870;28;20803;-72
2022/08/03 02:30:45;;;;;;;10.03;3.10;;;;;;;20.79;90.72;101390.75;5228402;28;20607;-71
2022/08/03 02:33:22;;;;;;;11.30;3.07;;;;;;;20.88;88.89;101381.91;5228810;28;20440;-72
2022/08/03 02:35:56;;;;;;;11.10;3.13;;;;;;;20.90;87.69;101373.75;5228661;28;20685;-72
2022/08/03 02:38:32;;;;;;;11.35;3.08;;;;;;;20.74;89.85;101383.22;5228371;28;20101;-72
2022/08/03 02:41:07;;;;;;;9.00;2.87;;;;;;;20.67;91.72;101384.78;5226607;28;20052;-71
2022/08/03 02:43:39;;;;;;;12.77;3.70;;;;;;;20.64;90.69;101377.94;5228279;28;20040;-72
2022/08/03 02:46:13;;;;;;;14.90;4.83;;;;;;;20.73;90.90;101376.22;5228153;28;20604;-73
2022/08/03 02:48:46;;;;;;;13.65;3.58;;;;;;;20.53;93.34;101383.41;5228414;28;20025;-71
2022/08/03 02:51:20;;;;;;;7.60;3.80;;;;;;;20.79;90.74;101372.13;5228349;28;20022;-73
2022/08/03 02:53:53;;;;;;;11.65;3.72;;;;;;;20.53;93.61;101373.63;5226967;28;20022;-72
2022/08/03 02:56:26;;;;;;;10.27;3.70;;;;;;;20.37;96.07;101374.22;5228553;28;20078;-73
2022/08/03 02:58:58;;;;;;;11.47;3.57;;;;;;;20.75;94.35;101374.22;5227863;28;20108;-72
2022/08/03 03:01:30;;;;;;;14.53;3.63;;;;;;;20.46;96.16;101375.19;5228358;28;20550;-71
2022/08/03 03:04:02;;;;;;;9.73;3.73;;;;;;;20.74;93.47;101358.41;5228230;28;20057;-72
2022/08/03 03:06:34;;;;;;;11.23;3.97;;;;;;;20.73;94.17;101362.06;5227315;28;20072;-72
2022/08/03 03:09:07;;;;;;;12.60;4.90;;;;;;;20.71;93.79;101361.38;5227457;28;20030;-72
2022/08/03 03:11:40;;;;;;;9.17;3.80;;;;;;;20.59;95.06;101366.91;5227319;28;20029;-72
2022/08/03 03:14:13;;;;;;;14.37;4.13;;;;;;;20.63;94.00;101373.59;5210559;28;20048;-72
2022/08/03 03:16:46;;;;;;;10.07;4.00;;;;;;;20.42;97.38;101371.97;5227568;28;20083;-72
2022/08/03 03:19:19;;;;;;;14.77;3.70;;;;;;;20.63;94.12;101372.78;5227989;28;20026;-72
2022/08/03 03:21:50;;;;;;;11.70;4.30;;;;;;;20.35;96.61;101376.19;5227786;28;20022;-72
2022/08/03 03:24:22;;;;;;;12.07;4.00;;;;;;;20.42;94.91;101366.66;5209113;28;20025;-72
2022/08/03 03:26:54;;;;;;;10.47;3.90;;;;;;;20.38;95.51;101369.75;5227907;28;20033;-72
2022/08/03 03:29:26;;;;;;;9.73;3.87;;;;;;;20.50;94.30;101368.59;5227394;28;20017;-72
2022/08/03 03:31:58;;;;;;;13.50;3.83;;;;;;;20.34;95.50;101368.34;5210662;28;20021;-72
2022/08/03 03:34:29;;;;;;;11.67;4.60;;;;;;;20.39;94.31;101364.28;5228725;28;20026;-72
2022/08/03 03:37:01;;;;;;;13.23;4.20;;;;;;;20.31;94.99;101364.19;5228297;28;20036;-72
2022/08/03 03:39:32;;;;;;;8.47;3.53;;;;;;;20.51;92.89;101366.78;5228067;28;20083;-72
2022/08/03 03:42:04;;;;;;;10.00;3.80;;;;;;;20.45;93.10;101370.84;5228279;28;20061;-72
2022/08/03 03:44:35;;;;;;;12.83;4.07;;;;;;;20.38;92.78;101361.78;5228523;28;20080;-72
2022/08/03 03:47:06;;;;;;;10.00;4.10;;;;;;;20.43;91.96;101368.34;5228768;28;20030;-72
2022/08/03 03:49:39;;;;;;;11.97;3.73;;;;;;;20.31;92.92;101364.19;5229243;28;20055;-71
2022/08/03 03:52:10;;;;;;;6.70;3.23;;;;;;;20.28;92.60;101354.66;5228708;28;20037;-72
2022/08/03 03:54:43;;;;;;;11.03;3.87;;;;;;;20.37;91.67;101360.09;5231704;28;20029;-72
2022/08/03 03:57:14;;;;;;;15.03;4.43;;;;;;;20.37;91.59;101360.09;5232851;28;20017;-72
2022/08/03 03:59:46;;;;;;;14.70;4.33;;;;;;;20.35;92.05;101364.72;5214412;28;20033;-71
2022/08/03 04:02:17;;;;;;;12.60;3.77;;;;;;;20.29;92.17;101366.13;5206193;28;20092;-71
2022/08/03 04:11:16;;;;;;;10.23;3.23;;;;;;;20.26;91.47;101361.09;5169684;28;20109;-72
2022/08/03 04:13:53;;;;;;;14.43;3.73;;;;;;;20.13;93.06;101362.25;5170297;28;20468;-72
2022/08/03 04:16:32;;;;;;;11.70;3.90;;;;;;;20.09;93.02;101350.22;5170659;28;20126;-72
2022/08/03 04:19:12;;;;;;;10.17;4.17;;;;;;;20.13;92.40;101370.22;5170744;28;20033;-72
2022/08/03 04:21:47;;;;;;;16.87;5.20;;;;;;;20.09;93.11;101366.16;5170121;28;20081;-71
2022/08/03 04:24:20;;;;;;;8.70;3.47;;;;;;;19.93;94.09;101364.91;5169378;28;20030;-72
2022/08/03 04:26:53;;;;;;;10.87;3.90;;;;;;;19.98;93.51;101361.84;5170956;28;20485;-72
2022/08/03 04:29:25;;;;;;;15.60;4.80;;;;;;;19.79;95.96;101365.34;5169991;28;20034;-72
2022/08/03 04:31:59;;;;;;;10.10;3.90;;;;;;;19.94;94.09;101360.41;5170686;28;20031;-72
2022/08/03 04:34:31;;;;;;;12.82;3.63;;;;;;;19.96;94.07;101366.44;5169549;28;21145;-72
2022/08/03 04:37:10;;;;;;;8.37;3.20;;;;;;;19.94;94.75;101369.25;5170364;28;20050;-72
2022/08/03 04:39:43;;;;;;;12.97;4.23;;;;;;;19.99;93.85;101368.81;5167666;28;20030;-73
2022/08/03 04:42:18;;;;;;;8.17;3.17;;;;;;;19.96;94.14;101369.09;5169682;28;20026;-72
2022/08/03 04:44:51;;;;;;;16.00;3.37;;;;;;;19.92;95.06;101370.34;5169773;28;20018;-72
2022/08/03 04:47:23;;;;;;;10.95;4.28;;;;;;;19.99;94.40;101376.78;5170362;28;20023;-72
2022/08/03 04:49:54;;;;;;;9.93;4.03;;;;;;;19.89;95.25;101376.81;5168345;28;20034;-72
2022/08/03 04:52:26;;;;;;;11.50;3.53;;;;;;;20.00;93.91;101378.44;5168238;28;20417;-71
2022/08/03 04:54:57;;;;;;;9.93;3.57;;;;;;;19.92;94.98;101384.50;5168989;28;20026;-71
2022/08/03 04:57:28;;;;;;;8.30;3.43;;;;;;;19.75;99.64;101383.38;5168400;28;20049;-71
2022/08/03 04:59:59;;;;;;;12.63;3.87;;;;;;;19.95;96.99;101386.00;5167921;28;20149;-72
2022/08/03 05:02:31;;;;;;;12.20;3.37;;;;;;;19.94;97.00;101389.66;5182529;28;20042;-71
2022/08/03 05:05:02;;;;;;;9.47;3.07;;;;;;;19.99;95.81;101398.06;5208754;28;20113;-72
2022/08/03 05:07:33;;;;;;;7.60;3.57;;;;;;;19.97;95.33;101392.03;5210235;28;20543;-72
2022/08/03 05:10:06;;;;;;;9.43;3.57;;;;;;;19.99;95.82;101395.41;5208628;28;20641;-72
2022/08/03 05:12:38;;;;;;;16.77;3.10;;;;;;;19.96;95.50;101390.38;5210145;28;20108;-71
2022/08/03 05:15:10;;;;;;;8.90;3.47;;;;;;;19.99;94.96;101395.41;5209901;28;20116;-72
2022/08/03 05:17:42;;;;;;;13.97;3.80;;;;;;;19.89;95.54;101392.75;5210045;28;20018;-72
2022/08/03 05:20:13;;;;;;;8.33;2.67;;;;;;;19.97;94.89;101397.34;5209732;28;20087;-72
2022/08/03 05:22:44;;;;;;;9.43;2.67;;;;;;;20.00;94.90;101407.69;5209380;28;20068;-73
2022/08/03 05:25:16;;;;;;;8.37;3.23;;;;;;;20.00;94.97;101404.22;5208533;28;20026;-71
2022/08/03 05:27:47;;;;;;;9.87;3.93;;;;;;;19.86;95.90;101398.34;5209579;28;20083;-72
2022/08/03 05:30:19;;;;;;;7.27;2.80;;;;;;;20.02;94.96;101405.75;5191983;28;20030;-73
2022/08/03 05:32:50;;;;;;;11.40;3.27;;;;;;;20.03;93.90;101399.47;5209768;28;20025;-72
2022/08/03 05:35:24;;;;;;;8.60;3.87;;;;;;;19.97;94.91;101415.97;5208497;28;20025;-72
2022/08/03 05:37:55;;;;;;;9.30;3.67;;;;;;;20.05;94.30;101413.50;5209577;28;20026;-72
2022/08/03 05:40:26;;;;;;;8.77;2.93;;;;;;;20.03;94.54;101415.41;5207812;28;20076;-72
2022/08/03 05:42:58;;;;;;;13.17;3.47;;;;;;;20.08;93.92;101415.00;5209459;28;20054;-72
2022/08/03 05:45:29;;;;;;;12.10;3.57;;;;;;;20.13;92.25;101414.56;5209043;28;20021;-72
2022/08/03 05:48:00;;;;;;;8.73;2.90;;;;;;;20.15;93.69;101417.94;5191303;28;20021;-72
2022/08/03 05:50:32;;;;;;;10.23;3.03;;;;;;;20.12;93.07;101413.75;5208841;28;20080;-72
2022/08/03 05:53:03;;;;;;;11.20;2.80;;;;;;;20.16;92.43;101419.63;5208588;28;20599;-72
2022/08/03 05:55:35;;;;;;;12.50;3.17;;;;;;;20.20;92.10;101415.69;5208739;28;20028;-72
2022/08/03 05:58:06;;;;;;;10.10;2.77;;;;;;;20.23;92.41;101417.25;5208913;28;20029;-72
2022/08/03 06:00:37;;;;;;;13.93;3.70;;;;;;;20.28;91.76;101422.97;5208040;28;20036;-72
2022/08/03 06:03:09;;;;;;;11.90;3.03;;;;;;;20.25;91.67;101421.44;5208976;28;20129;-72
2022/08/03 06:05:40;;;;;;;12.40;3.50;;;;;;;20.26;91.38;101417.81;5208154;28;20022;-74
2022/08/03 06:08:11;;;;;;;14.20;2.97;;;;;;;20.30;90.90;101413.00;5208757;28;20022;-73
2022/08/03 06:10:43;;;;;;;14.10;3.60;;;;;;;20.29;90.12;101406.88;5207986;28;20452;-73
2022/08/03 06:13:14;;;;;;;13.13;3.13;;;;;;;20.36;91.02;101416.94;5208724;28;20022;-72
2022/08/03 06:15:45;;;;;;;8.67;2.23;;;;;;;20.39;90.93;101416.63;5191249;28;20053;-72
2022/08/03 06:18:17;;;;;;;8.47;2.37;;;;;;;20.38;89.45;101407.00;5207785;28;20052;-72
2022/08/03 06:20:48;;;;;;;11.23;2.53;;;;;;;20.41;89.80;101417.34;5191029;28;20076;-72
2022/08/03 06:23:19;;;;;;;12.27;3.03;;;;;;;20.49;88.82;101417.47;5206619;28;20022;-72
2022/08/03 06:25:51;;;;;;;8.40;2.70;;;;;;;20.53;88.63;101410.03;5208101;28;20377;-72
2022/08/03 06:28:22;;;;;;;17.73;3.27;;;;;;;20.55;88.98;101413.38;5207994;28;20030;-72
2022/08/03 06:30:53;;;;;;;11.70;3.17;;;;;;;20.60;87.97;101419.13;5190741;28;20499;-72
2022/08/03 06:33:25;;;;;;;14.20;3.10;;;;;;;20.61;88.41;101428.78;5208064;28;20037;-72
2022/08/03 06:35:56;;;;;;;9.97;2.67;;;;;;;20.61;88.51;101407.50;5208207;28;20022;-72
2022/08/03 06:38:28;;;;;;;14.70;3.50;;;;;;;20.67;87.55;101416.72;5207139;28;20030;-72
2022/08/03 06:40:59;;;;;;;13.33;2.67;;;;;;;20.73;87.33;101415.31;5208160;28;20091;-72
2022/08/03 06:43:30;;;;;;;11.10;2.70;;;;;;;20.73;87.75;101407.31;5189344;28;20057;-72
2022/08/03 06:46:04;;;;;;;7.10;2.43;;;;;;;20.89;85.86;101428.81;5208699;28;20026;-72
2022/08/03 06:48:35;;;;;;;15.27;3.60;;;;;;;20.97;85.81;101427.28;5207527;28;20079;-73
2022/08/03 06:51:06;;;;;;;7.68;2.33;;;;;;;20.95;84.19;101426.59;5208140;28;20034;-73
2022/08/03 06:53:37;;;;;;;10.75;3.03;;;;;;;21.06;84.23;101430.88;5189316;28;20409;-72
2022/08/03 06:56:09;;;;;;;10.77;2.47;;;;;;;21.11;83.07;101418.81;5208027;28;20026;-71
2022/08/03 06:58:41;;;;;;;14.50;3.95;;;;;;;21.16;82.03;101421.03;5206974;28;20504;-71
2022/08/03 07:01:12;;;;;;;12.73;2.67;;;;;;;21.30;81.34;101426.84;5207200;28;20029;-71
2022/08/03 07:03:44;;;;;;;8.20;2.50;;;;;;;21.33;82.29;101423.91;5207770;28;20094;-71
2022/08/03 07:06:15;;;;;;;13.30;2.58;;;;;;;21.48;80.66;101434.88;5190803;28;20554;-71
2022/08/03 07:08:46;;;;;;;10.10;3.20;;;;;;;21.52;78.76;101426.41;5206824;28;20839;-72
2022/08/03 07:11:18;;;;;;;11.05;3.03;;;;;;;21.71;80.22;101440.59;5207879;28;20478;-72
2022/08/03 07:13:49;;;;;;;11.40;2.58;;;;;;;21.87;77.74;101429.28;5206693;28;20033;-72
2022/08/03 07:16:20;;;;;;;9.27;2.13;;;;;;;21.99;75.57;101432.53;5208229;28;20091;-72
2022/08/03 07:18:51;;;;;;;11.95;2.60;;;;;;;22.22;74.44;101433.88;5207439;28;20150;-72
2022/08/03 07:21:23;;;;;;;18.15;2.80;;;;;;;22.41;73.37;101440.84;5206865;28;20030;-72
2022/08/03 07:23:54;;;;;;;10.60;2.75;;;;;;;22.59;71.70;101445.31;5188854;28;20076;-72
2022/08/03 07:26:25;;;;;;;12.25;2.58;;;;;;;22.89;70.52;101445.84;5206460;28;20044;-73
2022/08/03 07:28:56;;;;;;;14.63;2.60;;;;;;;23.16;68.75;101443.94;5206784;28;20033;-72
2022/08/03 07:31:28;;;;;;;13.45;3.17;;;;;;;23.59;67.36;101448.47;5207815;28;20033;-73
2022/08/03 07:33:59;;;;;;;13.10;2.60;;;;;;;23.91;65.19;101454.84;5207162;28;20022;-73
2022/08/03 07:36:31;;;;;;;14.48;2.63;;;;;;;24.19;63.20;101447.53;5208059;28;20029;-73
2022/08/03 07:39:03;;;;;;;10.15;2.78;;;;;;;24.68;61.66;101459.97;5189038;28;20125;-73
2022/08/03 07:41:34;;;;;;;14.90;3.13;;;;;;;25.08;60.13;101446.66;5207057;28;20500;-73
2022/08/03 07:44:05;;;;;;;14.93;3.03;;;;;;;25.68;58.62;101445.34;5205984;28;20037;-73
2022/08/03 07:46:37;;;;;;;13.13;3.10;;;;;;;25.84;56.35;101439.88;5207355;28;20021;-73
2022/08/03 07:49:08;;;;;;;15.55;3.50;;;;;;;26.36;55.25;101447.31;5207498;28;20030;-72
2022/08/03 07:51:39;;;;;;;17.98;4.93;;;;;;;26.97;53.70;101448.16;5207712;28;20354;-73
2022/08/03 07:54:11;;;;;;;12.95;3.13;;;;;;;27.37;52.47;101447.00;5205786;28;20034;-73
2022/08/03 07:56:42;;;;;;;14.77;2.63;;;;;;;27.94;50.90;101440.94;5208063;28;20029;-73
2022/08/03 07:59:13;;;;;;;17.55;2.58;;;;;;;28.19;49.70;101443.22;5207559;28;20145;-74
2022/08/03 08:01:44;;;;;;;11.80;3.05;;;;;;;28.52;49.69;101447.19;5208459;28;20029;-71
2022/08/03 08:04:16;;;;;;;14.25;3.08;;;;;;;28.95;47.56;101446.16;5208368;28;20036;-73
2022/08/03 08:06:47;;;;;;;13.35;2.70;;;;;;;29.04;46.70;101441.47;5209050;28;20026;-72
2022/08/03 08:09:19;;;;;;;12.50;2.72;;;;;;;29.47;45.60;101441.16;5206513;28;20561;-72
2022/08/03 08:11:50;;;;;;;15.48;3.22;;;;;;;29.67;45.23;101443.06;5208064;28;20026;-72
2022/08/03 08:14:21;;;;;;;15.90;3.38;;;;;;;29.94;43.54;101443.09;5207226;28;20050;-72
2022/08/03 08:16:53;;;;;;;17.25;4.05;;;;;;;30.35;43.57;101448.50;5189924;28;20030;-73
2022/08/03 08:19:24;;;;;;;20.70;4.53;;;;;;;30.99;42.54;101447.91;5189623;28;20030;-71
2022/08/03 08:21:55;;;;;;;16.25;3.67;;;;;;;31.13;42.25;101448.66;5207599;28;20041;-71
2022/08/03 08:24:29;;;;;;;15.40;3.05;;;;;;;31.78;41.04;101437.88;5204737;28;20026;-72
2022/08/03 08:27:00;;;;;;;14.73;2.83;;;;;;;31.83;39.48;101446.16;5207841;28;20022;-72
2022/08/03 08:29:32;;;;;;;14.77;3.17;;;;;;;32.35;38.54;101445.06;5188983;28;20019;-72
2022/08/03 08:32:04;;;;;;;17.67;3.38;;;;;;;33.05;38.18;101455.75;5190425;28;20037;-72
2022/08/03 08:34:35;;;;;;;16.00;4.05;;;;;;;33.20;37.44;101446.38;5206653;28;20093;-72
2022/08/03 08:37:06;;;;;;;13.10;3.13;;;;;;;32.93;36.56;101433.16;5207315;28;20052;-72
2022/08/03 08:39:38;;;;;;;13.10;2.78;;;;;;;33.95;35.57;101437.91;5207544;28;20029;-72
2022/08/03 08:42:09;;;;;;;12.45;2.72;;;;;;;33.29;35.79;101444.16;5210674;28;20032;-72
2022/08/03 08:44:40;;;;;;;13.43;3.85;;;;;;;33.44;35.71;101443.75;5210144;28;20029;-73
2022/08/03 08:47:13;;;;;;;15.07;3.88;;;;;;;33.88;34.83;101429.09;5209958;28;20609;-74
2022/08/03 08:49:51;;;;;;;13.48;2.92;;;;;;;34.07;34.67;101447.97;5210767;28;20022;-72
2022/08/03 08:52:30;;;;;;;12.20;2.78;;;;;;;34.35;34.21;101436.38;5209271;28;20022;-73
2022/08/03 08:55:07;;;;;;;19.08;3.10;;;;;;;34.49;33.75;101439.66;5208701;28;20026;-73
2022/08/03 08:57:45;;;;;;;17.65;3.42;;;;;;;34.82;34.46;101442.81;5209884;28;20061;-73
2022/08/03 09:00:17;;;;;;;11.25;3.65;;;;;;;35.18;32.48;101439.09;5210361;28;20109;-72
2022/08/03 09:02:48;;;;;;;13.97;3.03;;;;;;;35.19;31.89;101435.31;5209427;28;20117;-72
2022/08/03 09:05:20;;;;;;;11.40;3.00;;;;;;;34.87;31.87;101445.63;5209848;28;20026;-72
2022/08/03 09:07:52;;;;;;;10.53;3.37;;;;;;;35.51;31.63;101442.13;5209159;28;20018;-73
2022/08/03 09:10:23;;;;;;;14.60;2.67;;;;;;;35.15;31.37;101443.16;5209510;28;20512;-72
2022/08/03 09:12:54;;;;;;;18.43;3.27;;;;;;;35.62;30.92;101443.97;5208581;28;20021;-72
2022/08/03 09:15:30;;;;;;;14.37;3.07;;;;;;;35.95;31.24;101439.59;5209404;28;20034;-73
2022/08/03 09:18:02;;;;;;;16.90;3.05;;;;;;;35.95;30.27;101436.84;5193009;28;20531;-73
2022/08/03 09:20:35;;;;;;;18.88;3.88;;;;;;;34.99;31.94;101439.31;5209306;28;20022;-72
2022/08/03 09:23:08;;;;;;;15.30;3.42;;;;;;;35.67;30.69;101424.97;5208754;28;20030;-72
2022/08/03 09:25:41;;;;;;;14.63;2.88;;;;;;;36.32;30.08;101440.91;5209304;28;20026;-72
2022/08/03 09:28:15;;;;;;;20.90;3.10;;;;;;;36.18;29.73;101448.63;5191715;28;20507;-73
2022/08/03 09:30:59;;;;;;;13.88;3.53;;;;;;;37.44;30.70;101439.13;5209648;28;20034;-73
2022/08/03 09:33:30;;;;;;;14.85;3.03;;;;;;;37.40;28.59;101442.38;5209443;28;20059;-72
2022/08/03 09:36:02;;;;;;;17.47;3.83;;;;;;;37.92;28.24;101446.59;5209130;28;20109;-72
2022/08/03 09:38:33;;;;;;;11.30;2.77;;;;;;;37.56;28.16;101445.25;5208254;28;20049;-72
2022/08/03 09:41:17;;;;;;;14.53;3.50;;;;;;;38.10;28.72;101443.44;5208993;28;20061;-72
2022/08/03 09:43:53;;;;;;;11.40;3.22;;;;;;;38.03;27.41;101442.84;5208525;28;20030;-73
2022/08/03 09:46:24;;;;;;;15.77;3.13;;;;;;;38.36;27.12;101438.09;5207529;28;20472;-73
2022/08/03 09:49:12;;;;;;;13.97;3.83;;;;;;;38.73;28.08;101439.06;5209257;28;20030;-73
2022/08/03 09:51:45;;;;;;;16.40;4.35;;;;;;;38.27;26.88;101442.44;5208972;28;20036;-73
2022/08/03 09:54:29;;;;;;;19.42;3.53;;;;;;;38.57;27.26;101442.81;5207404;28;20026;-74
2022/08/03 09:57:01;;;;;;;14.90;4.13;;;;;;;38.78;26.73;101440.16;5191611;28;20249;-74
2022/08/03 09:59:33;;;;;;;18.70;3.40;;;;;;;38.61;26.63;101430.25;5190562;28;20029;-73
2022/08/03 10:02:04;;;;;;;13.95;3.05;;;;;;;38.82;25.45;101446.75;5209526;28;20137;-73
2022/08/03 10:04:46;;;;;;;20.97;3.97;;;;;;;39.06;26.22;101427.91;5208466;28;20022;-73
2022/08/03 10:07:22;;;;;;;18.98;3.40;;;;;;;39.45;25.41;101439.41;5208382;28;20528;-73
2022/08/03 10:09:59;;;;;;;20.25;3.63;;;;;;;39.98;25.59;101437.44;5208486;28;20022;-72
2022/08/03 10:12:31;;;;;;;18.27;3.60;;;;;;;39.80;24.46;101442.41;5208743;28;20369;-72
2022/08/03 10:15:02;;;;;;;14.97;4.10;;;;;;;40.44;23.86;101432.91;5208724;28;20076;-71
2022/08/03 10:17:34;;;;;;;20.55;4.65;;;;;;;40.39;24.33;101434.53;5208212;28;20505;-72
2022/08/03 10:20:06;;;;;;;21.47;5.37;;;;;;;40.13;24.41;101439.34;5208725;28;20034;-72
2022/08/03 10:22:39;;;;;;;20.80;5.15;;;;;;;40.68;23.38;101434.97;5207196;28;20030;-73
2022/08/03 10:25:14;;;;;;;19.67;4.68;;;;;;;40.55;23.87;101428.22;5208123;28;20025;-72
2022/08/03 10:27:50;;;;;;;20.70;4.72;;;;;;;40.17;23.50;101419.31;5208062;28;20408;-73
2022/08/03 10:30:23;;;;;;;15.23;3.85;;;;;;;39.95;24.04;101425.13;5208844;28;20025;-73
2022/08/03 10:33:08;;;;;;;19.65;4.43;;;;;;;40.43;23.61;101425.78;5208174;28;20810;-73
2022/08/03 10:35:41;;;;;;;20.27;4.63;;;;;;;39.54;25.05;101418.59;5208186;28;20036;-73
2022/08/03 10:38:18;;;;;;;22.63;4.93;;;;;;;40.52;23.14;101424.06;5207103;28;20125;-73
2022/08/03 10:40:53;;;;;;;24.58;4.00;;;;;;;41.21;23.19;101423.34;5208363;28;20549;-72
2022/08/03 10:43:32;;;;;;;17.40;3.83;;;;;;;41.06;22.95;101417.97;5208058;28;20030;-72
2022/08/03 10:46:07;;;;;;;18.33;3.70;;;;;;;41.36;22.74;101402.34;5208479;28;20022;-72
2022/08/03 10:48:38;;;;;;;17.48;4.63;;;;;;;40.80;22.67;101408.00;5190178;28;20061;-72
2022/08/03 10:51:10;;;;;;;17.93;3.90;;;;;;;41.23;22.51;101399.16;5207705;28;20069;-72
2022/08/03 10:53:42;;;;;;;15.77;3.10;;;;;;;40.71;22.21;101404.22;5206985;28;20052;-73
2022/08/03 10:59:44;;;;;;;13.07;3.25;;;;;;;41.83;21.67;101408.22;5206927;28;20622;-72
2022/08/03 11:02:15;;;;;;;23.70;4.45;;;;;;;41.10;22.65;101395.19;5207040;28;20092;-73
2022/08/03 11:05:26;;;;;;;13.50;3.67;;;;;;;41.72;22.62;101388.25;5207370;28;20468;-72
2022/08/03 11:08:20;;;;;;;17.08;3.97;;;;;;;41.41;22.47;101387.72;5189043;28;20029;-72
2022/08/03 11:10:55;;;;;;;18.65;4.10;;;;;;;41.35;21.90;101382.28;5207360;28;20121;-73
2022/08/03 11:13:30;;;;;;;13.18;3.58;;;;;;;40.74;22.62;101373.47;5207522;28;20040;-72
2022/08/03 11:16:18;;;;;;;15.93;3.30;;;;;;;41.40;22.93;101378.69;5207144;28;20041;-73
2022/08/03 11:19:01;;;;;;;15.23;2.95;;;;;;;40.63;23.45;101369.97;5207475;28;20096;-72
2022/08/03 11:21:48;;;;;;;15.63;3.22;;;;;;;41.24;22.72;101378.84;5189164;28;20166;-72
2022/08/03 11:24:35;;;;;;;16.20;3.20;;;;;;;40.98;23.38;101370.81;5206300;28;20064;-72
2022/08/03 11:27:23;;;;;;;16.33;3.53;;;;;;;40.66;23.53;101383.13;5207847;28;20026;-72
2022/08/03 11:30:18;;;;;;;18.13;3.10;;;;;;;40.36;23.66;101384.91;5207154;28;20731;-72
2022/08/03 11:32:51;;;;;;;12.23;2.85;;;;;;;39.91;23.45;101375.50;5207096;28;20117;-73
2022/08/03 11:35:27;;;;;;;13.57;2.63;;;;;;;40.13;24.02;101382.56;5206818;28;20059;-72
2022/08/03 11:37:59;;;;;;;7.50;1.95;;;;;;;40.27;23.72;101379.22;5206580;28;20080;-72
2022/08/03 11:40:47;;;;;;;10.43;2.00;;;;;;;40.15;24.03;101380.34;5189167;28;20065;-72
2022/08/03 11:43:28;;;;;;;9.07;2.33;;;;;;;39.45;23.59;101387.34;5206763;28;20523;-72
2022/08/03 11:46:00;;;;;;;8.80;2.28;;;;;;;39.64;23.82;101381.34;5208062;28;20041;-72
2022/08/03 11:48:43;;;;;;;8.43;2.35;;;;;;;39.30;24.50;101375.34;5206100;28;20018;-73
2022/08/03 11:51:32;;;;;;;;;;;;;;;40.20;24.20;101381.44;5207376;28;20030;-73
2022/08/03 11:54:05;;;;;;;9.45;1.77;;;;;;;38.84;24.86;101387.91;5206372;28;20016;-73
2022/08/03 11:56:43;;;;;;;7.78;2.30;;;;;;;38.70;25.38;101373.09;5206707;28;20037;-73
2022/08/03 11:59:17;;;;;;;10.82;2.35;;;;;;;38.88;25.89;101379.97;5206238;28;20045;-72